Stith, Texas
Current Conditions -  °F | °C
As of 4:58 AM on Friday 31 Oct 2014 (Local Time) from KDYS Reporting Station
Clear Clear  
Wind Chill: 50°   Ceiling: Unl
Heat Index: 50°   Visibility: 10mi
Dew Point: 39°   Wind: 5mph
Humidity: 64%   Direction: 300°WNW
Pressure: 30.29"   Gusts: NA
Location:  32.3913°N, 100.009°W
Report Text: KDYS 310958Z AUTO 30004KT 10SM CLR 10/04 A3029 RMK AO2 SLP229 T01020037 $
Loading
Personal Weather Stations






























Interactive Weather Map
Tropical Storm Tracking
New forecast layout! Learn more

10-Day Weather Forecast

Advertisements
Track Severe Weather on mobile